createdAt,value
2022-10-19T00:00:11.432Z,19.90
2022-10-19T00:02:45.606Z,19.90
2022-10-19T00:05:22.141Z,20.00
2022-10-19T00:07:57.451Z,20.00
2022-10-19T00:10:32.536Z,19.90
2022-10-19T00:13:06.992Z,19.90
2022-10-19T00:15:44.611Z,19.90
2022-10-19T00:18:18.763Z,20.00
2022-10-19T00:21:05.672Z,20.00
2022-10-19T00:23:40.444Z,20.00
2022-10-19T00:26:15.268Z,19.90
2022-10-19T00:28:50.168Z,20.00
2022-10-19T00:31:24.808Z,20.00
2022-10-19T00:34:11.516Z,20.00
2022-10-19T00:36:48.312Z,19.90
2022-10-19T00:39:23.435Z,20.00
2022-10-19T00:41:57.065Z,20.00
2022-10-19T00:45:08.234Z,20.00
2022-10-19T00:47:43.288Z,20.00
2022-10-19T00:50:18.723Z,20.10
2022-10-19T00:52:55.463Z,20.00
2022-10-19T00:55:30.373Z,20.10
2022-10-19T00:58:07.661Z,20.30
2022-10-19T01:00:43.351Z,20.40
2022-10-19T01:03:19.524Z,20.40
2022-10-19T01:06:01.079Z,20.30
2022-10-19T01:08:37.995Z,20.30
2022-10-19T01:11:41.884Z,20.30
2022-10-19T01:14:34.546Z,20.30
2022-10-19T01:17:14.100Z,20.30
2022-10-19T01:20:49.230Z,20.30
2022-10-19T01:23:53.192Z,20.30
2022-10-19T01:26:50.759Z,20.30
2022-10-19T01:29:41.815Z,20.40
2022-10-19T01:32:26.534Z,20.50
2022-10-19T01:35:17.157Z,20.60
2022-10-19T01:37:55.567Z,20.50
2022-10-19T01:40:38.662Z,20.60
2022-10-19T01:43:23.154Z,20.50
2022-10-19T01:46:08.623Z,20.50
2022-10-19T01:48:57.120Z,20.60
2022-10-19T01:51:39.106Z,20.60
2022-10-19T01:54:22.785Z,20.60
2022-10-19T01:57:05.036Z,20.60
2022-10-19T01:59:46.116Z,20.60
2022-10-19T02:02:29.651Z,20.60
2022-10-19T02:05:12.902Z,20.70
2022-10-19T02:07:54.288Z,20.80
2022-10-19T02:10:32.216Z,20.90
2022-10-19T02:13:07.558Z,20.90
2022-10-19T02:15:44.997Z,20.90
2022-10-19T02:18:22.826Z,20.80
2022-10-19T02:21:01.576Z,20.90
2022-10-19T02:23:51.896Z,20.90
2022-10-19T02:26:33.472Z,20.70
2022-10-19T02:29:07.297Z,20.70
2022-10-19T02:31:43.128Z,20.80
2022-10-19T02:34:18.432Z,20.80
2022-10-19T02:37:02.322Z,21.00
2022-10-19T02:39:38.474Z,21.30
2022-10-19T02:42:20.864Z,21.30
2022-10-19T02:45:02.626Z,21.40
2022-10-19T02:47:39.207Z,21.30
2022-10-19T02:50:14.926Z,21.30
2022-10-19T02:52:58.741Z,21.50
2022-10-19T02:55:34.719Z,21.50
2022-10-19T02:58:13.313Z,21.40
2022-10-19T03:00:54.572Z,21.70
2022-10-19T03:03:33.309Z,21.50
2022-10-19T03:06:08.670Z,21.30
2022-10-19T03:08:45.097Z,21.40
2022-10-19T03:11:23.648Z,21.80
2022-10-19T03:13:59.140Z,21.90
2022-10-19T03:16:39.801Z,22.00
2022-10-19T03:19:16.728Z,21.90
2022-10-19T03:21:53.562Z,22.00
2022-10-19T03:24:41.264Z,21.80
2022-10-19T03:27:21.398Z,21.90
2022-10-19T03:29:55.479Z,21.90
2022-10-19T03:32:37.722Z,21.90
2022-10-19T03:35:14.460Z,21.90
2022-10-19T03:37:48.482Z,22.00
2022-10-19T03:40:33.485Z,22.30
2022-10-19T03:43:08.300Z,22.40
2022-10-19T03:45:42.950Z,22.10
2022-10-19T03:48:18.012Z,21.80
2022-10-19T03:50:56.185Z,21.90
2022-10-19T03:53:36.290Z,21.70
2022-10-19T03:56:20.662Z,21.80
2022-10-19T03:58:57.767Z,21.90
2022-10-19T04:01:43.262Z,22.00
2022-10-19T04:04:23.473Z,22.00
2022-10-19T04:07:00.362Z,21.70
2022-10-19T04:09:41.101Z,21.90
2022-10-19T04:12:25.419Z,22.00
2022-10-19T04:15:02.073Z,21.90
2022-10-19T04:17:36.723Z,21.90
2022-10-19T04:20:17.962Z,21.80
2022-10-19T04:23:08.135Z,21.90
2022-10-19T04:25:48.527Z,22.00
2022-10-19T04:28:35.310Z,22.30
2022-10-19T04:31:11.549Z,22.40
2022-10-19T04:36:31.813Z,22.50
2022-10-19T04:39:29.446Z,22.70
2022-10-19T04:42:06.564Z,23.00
2022-10-19T04:45:01.561Z,23.00
2022-10-19T04:47:37.387Z,23.20
2022-10-19T04:50:18.189Z,23.30
2022-10-19T04:52:54.758Z,23.30
2022-10-19T04:55:39.152Z,23.50
2022-10-19T04:58:15.385Z,23.50
2022-10-19T05:00:59.998Z,23.40
2022-10-19T05:03:38.455Z,23.50
2022-10-19T05:06:21.089Z,23.80
2022-10-19T05:08:55.468Z,24.00
2022-10-19T05:11:32.548Z,23.90
2022-10-19T05:14:14.375Z,24.00
2022-10-19T05:16:52.793Z,24.10
2022-10-19T05:19:28.615Z,23.70
2022-10-19T05:22:06.711Z,23.70
2022-10-19T05:24:41.174Z,23.80
2022-10-19T05:27:15.124Z,23.90
2022-10-19T05:29:57.682Z,23.80
2022-10-19T05:32:36.694Z,23.70
2022-10-19T05:35:21.498Z,23.60
2022-10-19T05:38:06.914Z,23.50
2022-10-19T05:40:41.005Z,23.70
2022-10-19T05:43:17.688Z,24.10
2022-10-19T05:45:55.567Z,24.10
2022-10-19T05:48:35.436Z,24.00
2022-10-19T05:51:12.112Z,24.00
2022-10-19T05:53:53.027Z,24.20
2022-10-19T05:56:29.739Z,24.10
2022-10-19T05:59:14.275Z,24.00
2022-10-19T06:01:48.727Z,24.10
2022-10-19T06:04:25.349Z,24.30
2022-10-19T06:07:00.940Z,24.10
2022-10-19T06:09:38.216Z,24.40
2022-10-19T06:12:24.258Z,24.10
2022-10-19T06:15:03.785Z,23.80
2022-10-19T06:17:37.893Z,23.80
2022-10-19T06:20:16.248Z,23.70
2022-10-19T06:22:51.275Z,23.70
2022-10-19T06:25:25.477Z,24.00
2022-10-19T06:28:25.183Z,24.10
2022-10-19T06:31:01.095Z,23.80
2022-10-19T06:33:38.555Z,23.90
2022-10-19T06:36:19.795Z,23.70
2022-10-19T06:38:57.973Z,23.70
2022-10-19T06:41:33.938Z,23.90
2022-10-19T06:44:26.671Z,23.80
2022-10-19T06:47:01.230Z,23.70
2022-10-19T06:49:37.252Z,23.70
2022-10-19T06:52:16.737Z,23.90
2022-10-19T06:54:53.450Z,23.90
2022-10-19T06:57:33.206Z,23.80
2022-10-19T07:00:13.427Z,23.70
2022-10-19T07:02:48.920Z,23.70
2022-10-19T07:05:27.151Z,23.70
2022-10-19T07:08:13.537Z,23.50
2022-10-19T07:11:01.335Z,23.40
2022-10-19T07:13:39.996Z,23.40
2022-10-19T07:16:21.168Z,23.60
2022-10-19T07:18:58.624Z,23.70
2022-10-19T07:21:32.858Z,23.50
2022-10-19T07:24:08.529Z,23.50
2022-10-19T07:26:43.817Z,23.50
2022-10-19T07:29:18.911Z,23.70
2022-10-19T07:32:04.691Z,23.70
2022-10-19T07:34:39.255Z,23.60
2022-10-19T07:37:14.747Z,23.50
2022-10-19T07:39:49.997Z,23.40
2022-10-19T07:42:26.490Z,23.40
2022-10-19T07:45:00.661Z,23.30
2022-10-19T07:47:35.258Z,23.20
2022-10-19T07:50:14.244Z,23.20
2022-10-19T07:52:49.322Z,22.90
2022-10-19T07:55:33.155Z,23.10
2022-10-19T07:58:10.368Z,23.20
2022-10-19T08:00:53.862Z,23.20
2022-10-19T08:04:14.227Z,23.20
2022-10-19T08:06:26.738Z,23.20
2022-10-19T08:09:11.315Z,23.10
2022-10-19T08:11:55.560Z,23.00
2022-10-19T08:14:29.589Z,23.00
2022-10-19T08:17:12.795Z,22.80
2022-10-19T08:19:51.519Z,22.90
2022-10-19T08:22:24.913Z,23.10
2022-10-19T08:25:03.282Z,23.10
2022-10-19T08:27:42.281Z,23.00
2022-10-19T08:30:19.009Z,22.90
2022-10-19T08:32:54.531Z,22.80
2022-10-19T08:35:31.781Z,22.70
2022-10-19T08:38:10.931Z,22.70
2022-10-19T08:40:51.604Z,22.70
2022-10-19T08:43:42.957Z,22.70
2022-10-19T08:46:26.086Z,22.70
2022-10-19T08:49:03.198Z,22.60
2022-10-19T08:51:43.117Z,22.60
2022-10-19T08:54:21.993Z,22.60
2022-10-19T08:57:09.335Z,22.50
2022-10-19T08:59:50.925Z,22.50
2022-10-19T09:02:38.816Z,22.50
2022-10-19T09:05:25.018Z,22.40
2022-10-19T09:08:01.523Z,22.40
2022-10-19T09:10:39.496Z,22.30
2022-10-19T09:13:21.248Z,22.40
2022-10-19T09:16:04.490Z,22.30
2022-10-19T09:18:43.656Z,22.30
2022-10-19T09:21:30.157Z,22.20
2022-10-19T09:24:20.190Z,22.20
2022-10-19T09:27:00.534Z,22.20
2022-10-19T09:29:44.470Z,22.10
2022-10-19T09:32:26.288Z,22.10
2022-10-19T09:35:05.184Z,22.10
2022-10-19T09:37:45.938Z,22.10
2022-10-19T09:40:27.658Z,22.10
2022-10-19T09:43:21.701Z,22.10
2022-10-19T09:46:16.453Z,22.00
2022-10-19T09:48:58.662Z,22.00
2022-10-19T09:51:51.634Z,22.00
2022-10-19T09:54:42.216Z,22.00
2022-10-19T09:57:33.514Z,22.00
2022-10-19T10:00:08.705Z,22.00
2022-10-19T10:02:49.648Z,22.00
2022-10-19T10:05:37.153Z,21.90
2022-10-19T10:08:22.484Z,21.90
2022-10-19T10:11:03.632Z,21.90
2022-10-19T10:13:46.808Z,21.80
2022-10-19T10:16:24.628Z,21.70
2022-10-19T10:19:03.324Z,21.50
2022-10-19T10:21:51.299Z,21.20
2022-10-19T10:24:32.406Z,21.20
2022-10-19T10:27:15.826Z,21.20
2022-10-19T10:30:01.940Z,21.10
2022-10-19T10:32:43.298Z,21.10
2022-10-19T10:35:23.809Z,21.20
2022-10-19T10:38:11.649Z,21.10
2022-10-19T10:40:53.656Z,21.10
2022-10-19T10:43:35.085Z,21.10
2022-10-19T10:46:12.495Z,21.00
2022-10-19T10:48:53.320Z,20.90
2022-10-19T10:51:35.920Z,20.90
2022-10-19T10:54:22.254Z,20.80
2022-10-19T10:57:19.577Z,20.80
2022-10-19T11:00:09.522Z,20.90
2022-10-19T11:02:52.887Z,20.80
2022-10-19T11:05:31.323Z,20.70
2022-10-19T11:08:20.820Z,20.70
2022-10-19T11:11:04.227Z,20.70
2022-10-19T11:13:44.070Z,20.60
2022-10-19T11:16:21.232Z,20.70
2022-10-19T11:19:01.852Z,20.50
2022-10-19T11:21:44.123Z,20.50
2022-10-19T11:24:28.289Z,20.50
2022-10-19T11:27:24.086Z,20.50
2022-10-19T11:30:17.126Z,20.50
2022-10-19T11:33:01.533Z,20.30
2022-10-19T11:35:49.005Z,20.30
2022-10-19T11:38:44.667Z,20.30
2022-10-19T11:41:36.462Z,20.30
2022-10-19T11:44:32.300Z,20.30
2022-10-19T11:47:39.859Z,20.20
2022-10-19T11:50:32.020Z,20.30
2022-10-19T11:53:17.060Z,20.30
2022-10-19T11:56:05.362Z,20.20
2022-10-19T11:58:58.623Z,20.10
2022-10-19T12:04:50.909Z,20.00
2022-10-19T12:07:38.364Z,20.10
2022-10-19T12:10:29.271Z,20.10
2022-10-19T12:13:09.328Z,20.10
2022-10-19T12:15:46.814Z,20.10
2022-10-19T12:18:26.599Z,20.10
2022-10-19T12:21:13.466Z,20.10
2022-10-19T12:23:50.948Z,20.10
2022-10-19T12:26:28.733Z,20.10
2022-10-19T12:29:13.240Z,20.10
2022-10-19T12:31:50.322Z,20.10
2022-10-19T12:34:38.570Z,20.10
2022-10-19T12:37:20.479Z,20.10
2022-10-19T12:40:05.028Z,20.10
2022-10-19T12:42:52.595Z,20.10
2022-10-19T12:45:39.520Z,20.10
2022-10-19T12:48:37.626Z,20.10
2022-10-19T12:51:16.346Z,20.20
2022-10-19T12:54:13.764Z,20.20
2022-10-19T12:56:56.125Z,20.20
2022-10-19T12:59:37.634Z,20.30
2022-10-19T13:02:29.440Z,20.20
2022-10-19T13:05:07.958Z,20.10
2022-10-19T13:07:45.429Z,20.00
2022-10-19T13:10:26.683Z,20.10
2022-10-19T13:13:04.588Z,20.10
2022-10-19T13:15:56.238Z,20.10
2022-10-19T13:19:19.625Z,20.10
2022-10-19T13:22:11.540Z,20.00
2022-10-19T13:24:45.745Z,20.00
2022-10-19T13:27:45.521Z,20.00
2022-10-19T13:31:04.948Z,19.90
2022-10-19T13:33:58.649Z,19.90
2022-10-19T13:36:45.974Z,19.90
2022-10-19T13:39:35.769Z,19.90
2022-10-19T13:42:34.417Z,19.90
2022-10-19T13:45:29.182Z,19.80
2022-10-19T13:48:22.219Z,19.90
2022-10-19T13:51:10.184Z,19.90
2022-10-19T13:53:50.682Z,19.90
2022-10-19T13:56:56.282Z,19.90
2022-10-19T13:59:59.184Z,19.80
2022-10-19T14:03:13.425Z,19.80
2022-10-19T14:06:26.139Z,19.80
2022-10-19T14:09:36.652Z,19.80
2022-10-19T14:12:20.430Z,19.80
2022-10-19T14:14:56.453Z,19.70
2022-10-19T14:17:35.007Z,19.80
2022-10-19T14:20:33.374Z,19.70
2022-10-19T14:23:30.360Z,19.70
2022-10-19T14:26:14.959Z,19.70
2022-10-19T14:28:52.057Z,19.80
2022-10-19T14:31:37.904Z,19.70
2022-10-19T14:34:14.371Z,19.70
2022-10-19T14:36:52.809Z,19.80
2022-10-19T14:39:41.047Z,19.80
2022-10-19T14:42:32.638Z,19.70
2022-10-19T14:45:16.229Z,19.80
2022-10-19T14:48:21.713Z,19.70
2022-10-19T14:51:01.305Z,19.70
2022-10-19T14:53:50.779Z,19.70
2022-10-19T14:56:44.174Z,19.70
2022-10-19T14:59:28.658Z,19.70
2022-10-19T15:02:12.294Z,19.70
2022-10-19T15:04:48.729Z,19.70
2022-10-19T15:07:27.158Z,19.70
2022-10-19T15:10:16.532Z,19.80
2022-10-19T15:13:14.719Z,19.70
2022-10-19T15:15:57.367Z,19.70
2022-10-19T15:18:50.323Z,19.80
2022-10-19T15:21:30.354Z,19.80
2022-10-19T15:24:31.975Z,19.80
2022-10-19T15:27:21.292Z,19.70
2022-10-19T15:30:06.377Z,19.80
2022-10-19T15:32:45.287Z,19.70
2022-10-19T15:35:44.613Z,19.70
2022-10-19T15:38:38.977Z,19.60
2022-10-19T15:41:30.821Z,19.60
2022-10-19T15:44:09.453Z,19.60
2022-10-19T15:47:19.371Z,19.50
2022-10-19T15:50:02.734Z,19.60
2022-10-19T15:52:42.093Z,19.60
2022-10-19T15:55:22.350Z,19.50
2022-10-19T15:58:04.351Z,19.60
2022-10-19T16:00:55.397Z,19.60
2022-10-19T16:06:51.356Z,19.60
2022-10-19T16:09:31.981Z,19.60
2022-10-19T16:12:13.183Z,19.70
2022-10-19T16:14:50.575Z,19.60
2022-10-19T16:17:36.947Z,19.60
2022-10-19T16:20:26.777Z,19.60
2022-10-19T16:23:01.993Z,19.50
2022-10-19T16:25:40.371Z,19.50
2022-10-19T16:28:24.695Z,19.50
2022-10-19T16:31:06.532Z,19.50
2022-10-19T16:33:42.304Z,19.50
2022-10-19T16:36:20.547Z,19.40
2022-10-19T16:38:57.198Z,19.40
2022-10-19T16:41:33.397Z,19.50
2022-10-19T16:44:12.511Z,19.40
2022-10-19T16:46:52.691Z,19.40
2022-10-19T16:49:40.792Z,19.40
2022-10-19T16:52:20.581Z,19.40
2022-10-19T16:54:59.773Z,19.40
2022-10-19T16:57:35.119Z,19.40
2022-10-19T17:00:13.566Z,19.40
2022-10-19T17:02:48.640Z,19.40
2022-10-19T17:05:23.887Z,19.40
2022-10-19T17:07:58.906Z,19.40
2022-10-19T17:10:36.704Z,19.40
2022-10-19T17:13:12.976Z,19.40
2022-10-19T17:15:47.408Z,19.40
2022-10-19T17:18:28.159Z,19.40
2022-10-19T17:21:10.772Z,19.40
2022-10-19T17:23:51.602Z,19.40
2022-10-19T17:26:30.417Z,19.40
2022-10-19T17:29:07.152Z,19.40
2022-10-19T17:31:43.666Z,19.30
2022-10-19T17:34:23.617Z,19.30
2022-10-19T17:37:12.244Z,19.40
2022-10-19T17:39:47.442Z,19.40
2022-10-19T17:42:26.077Z,19.40
2022-10-19T17:45:01.780Z,19.40
2022-10-19T17:47:38.604Z,19.40
2022-10-19T17:50:15.380Z,19.40
2022-10-19T17:52:49.832Z,19.50
2022-10-19T17:55:28.810Z,19.50
2022-10-19T17:58:11.905Z,19.50
2022-10-19T18:00:46.022Z,19.50
2022-10-19T18:03:23.943Z,19.40
2022-10-19T18:06:09.849Z,19.40
2022-10-19T18:08:51.355Z,19.30
2022-10-19T18:11:27.697Z,19.30
2022-10-19T18:14:05.931Z,19.40
2022-10-19T18:16:46.485Z,19.40
2022-10-19T18:19:26.723Z,19.40
2022-10-19T18:22:01.981Z,19.40
2022-10-19T18:24:38.080Z,19.40
2022-10-19T18:27:13.989Z,19.30
2022-10-19T18:29:51.367Z,19.20
2022-10-19T18:32:25.965Z,19.20
2022-10-19T18:35:00.417Z,19.20
2022-10-19T18:37:37.628Z,19.20
2022-10-19T18:40:13.695Z,19.20
2022-10-19T18:42:48.674Z,19.20
2022-10-19T18:45:29.365Z,19.30
2022-10-19T18:48:04.237Z,19.30
2022-10-19T18:50:38.396Z,19.20
2022-10-19T18:53:12.889Z,19.20
2022-10-19T18:55:47.468Z,19.30
2022-10-19T18:58:22.786Z,19.40
2022-10-19T19:01:08.394Z,19.40
2022-10-19T19:03:44.328Z,19.40
2022-10-19T19:06:20.429Z,19.40
2022-10-19T19:08:55.067Z,19.50
2022-10-19T19:11:33.087Z,19.50
2022-10-19T19:14:11.475Z,19.40
2022-10-19T19:16:48.810Z,19.40
2022-10-19T19:19:25.616Z,19.40
2022-10-19T19:21:59.946Z,19.40
2022-10-19T19:24:37.763Z,19.50
2022-10-19T19:27:11.731Z,19.40
2022-10-19T19:29:46.114Z,19.40
2022-10-19T19:32:22.445Z,19.40
2022-10-19T19:34:56.393Z,19.40
2022-10-19T19:37:33.716Z,19.40
2022-10-19T19:40:08.725Z,19.40
2022-10-19T19:42:43.073Z,19.40
2022-10-19T19:45:17.930Z,19.40
2022-10-19T19:47:53.943Z,19.30
2022-10-19T19:50:27.905Z,19.30
2022-10-19T19:53:03.159Z,19.30
2022-10-19T19:55:40.070Z,19.30
2022-10-19T19:58:13.788Z,19.30
2022-10-19T20:00:47.643Z,19.30
2022-10-19T20:03:22.869Z,19.30
2022-10-19T20:05:57.016Z,19.30
2022-10-19T20:08:30.866Z,19.30
2022-10-19T20:11:08.199Z,19.30
2022-10-19T20:13:42.706Z,19.30
2022-10-19T20:16:18.165Z,19.30
2022-10-19T20:18:55.907Z,19.20
2022-10-19T20:21:29.766Z,19.20
2022-10-19T20:24:04.219Z,19.20
2022-10-19T20:26:38.794Z,19.20
2022-10-19T20:29:12.795Z,19.10
2022-10-19T20:31:46.221Z,19.10
2022-10-19T20:34:23.994Z,19.20
2022-10-19T20:36:58.137Z,19.20
2022-10-19T20:39:35.277Z,19.20
2022-10-19T20:42:10.590Z,19.20
2022-10-19T20:44:44.820Z,19.20
2022-10-19T20:47:18.619Z,19.20
2022-10-19T20:49:54.989Z,19.10
2022-10-19T20:52:29.182Z,19.10
2022-10-19T20:55:10.486Z,19.00
2022-10-19T20:57:44.202Z,19.10
2022-10-19T21:00:22.077Z,19.00
2022-10-19T21:02:56.308Z,19.00
2022-10-19T21:05:31.860Z,19.10
2022-10-19T21:08:05.734Z,19.20
2022-10-19T21:10:38.912Z,19.20
2022-10-19T21:13:13.783Z,19.20
2022-10-19T21:15:47.830Z,19.20
2022-10-19T21:18:22.165Z,19.20
2022-10-19T21:20:57.929Z,19.20
2022-10-19T21:23:32.229Z,19.20
2022-10-19T21:26:05.812Z,19.10
2022-10-19T21:28:39.904Z,19.10
2022-10-19T21:31:14.048Z,19.10
2022-10-19T21:33:48.369Z,19.00
2022-10-19T21:36:26.232Z,19.00
2022-10-19T21:39:00.138Z,19.00
2022-10-19T21:41:34.141Z,19.10
2022-10-19T21:44:07.520Z,19.00
2022-10-19T21:46:41.385Z,19.00
2022-10-19T21:49:15.856Z,19.00
2022-10-19T21:51:53.307Z,19.00
2022-10-19T21:54:30.456Z,19.00
2022-10-19T21:57:04.866Z,19.00
2022-10-19T21:59:39.261Z,19.10
2022-10-19T22:02:13.577Z,19.20
2022-10-19T22:04:48.234Z,19.30
2022-10-19T22:07:24.682Z,19.20
2022-10-19T22:09:59.368Z,19.20
2022-10-19T22:12:33.719Z,19.20
2022-10-19T22:15:08.635Z,19.20
2022-10-19T22:17:42.941Z,19.20
2022-10-19T22:20:17.849Z,19.20
2022-10-19T22:22:55.074Z,19.20
2022-10-19T22:25:29.649Z,19.20
2022-10-19T22:28:04.611Z,19.20
2022-10-19T22:30:38.784Z,19.10
2022-10-19T22:33:13.132Z,19.20
2022-10-19T22:35:47.075Z,19.10
2022-10-19T22:38:23.609Z,19.20
2022-10-19T22:41:48.119Z,19.20
2022-10-19T22:44:37.729Z,19.10
2022-10-19T22:47:14.320Z,19.20
2022-10-19T22:49:48.883Z,19.10
2022-10-19T22:52:23.184Z,19.10
2022-10-19T22:54:59.616Z,19.20
2022-10-19T22:57:34.058Z,19.20
2022-10-19T23:00:08.554Z,19.10
2022-10-19T23:02:43.095Z,19.10
2022-10-19T23:05:18.320Z,19.20
2022-10-19T23:07:52.852Z,19.20
2022-10-19T23:10:29.305Z,19.20
2022-10-19T23:13:03.860Z,19.30
2022-10-19T23:15:41.706Z,19.30
2022-10-19T23:18:18.344Z,19.20
2022-10-19T23:20:59.794Z,19.20
2022-10-19T23:23:56.122Z,19.20
2022-10-19T23:26:32.554Z,19.20
2022-10-19T23:29:07.455Z,19.30
2022-10-19T23:31:42.200Z,19.30
2022-10-19T23:34:17.281Z,19.40
2022-10-19T23:36:51.949Z,19.40
2022-10-19T23:39:27.481Z,19.40
2022-10-19T23:42:04.738Z,19.40
2022-10-19T23:44:39.862Z,19.40
2022-10-19T23:47:14.019Z,19.40
2022-10-19T23:49:48.867Z,19.40
2022-10-19T23:52:24.052Z,19.40
2022-10-19T23:54:58.299Z,19.50
2022-10-19T23:57:35.096Z,19.30
